• Join FlightAware (Why Join?)
  • Login
  • US Flag 
04:45PM EDT


 

Airport Tracker/Info


-or-


 

Live Flight TrackerFlight Track Log ✈ 9Y-BGI ✈ 10-Apr-2013 ✈ MKJP / KIN - KFLL

Flight Track Log - Related Links

Times and Time Zones

All times are in EDT time to prevent confusion due to time zone crossing. See the 9Y-BGI flight status page for this flight to view local times or setup timezone preferences in your user account.

Time Position Orientation Groundspeed Altitude Reporting Facility
EDT Latitude Longitude Course Direction KTS MPH feet Rate Location/Type
06:58AM 18.3566 -76.8401 353° North  Level FlightAware Approximate
06:59AM 18.4618 -76.8533 353° North  Level FlightAware Approximate
07:00AM 18.5670 -76.8666 353° North  Level FlightAware Approximate
07:01AM 18.6723 -76.8798 353° North  Level FlightAware Approximate
07:02AM 18.7775 -76.8931 353° North  Level FlightAware Approximate
07:03AM 18.8827 -76.9063 353° North  Level FlightAware Approximate
07:04AM 18.9879 -76.9196 353° North  Level FlightAware Approximate
07:05AM 19.0931 -76.9329 353° North  Level FlightAware Approximate
07:06AM 19.1984 -76.9462 353° North  Level FlightAware Approximate
07:07AM 19.3036 -76.9595 353° North  Level FlightAware Approximate
07:08AM 19.4088 -76.9729 353° North  Level FlightAware Approximate
07:09AM 19.5140 -76.9863 353° North  Level FlightAware Approximate
07:10AM 19.6192 -76.9997 353° North  Level FlightAware Approximate
07:11AM 19.7245 -77.0131 353° North  Level FlightAware Approximate
07:12AM 19.8297 -77.0265 353° North  Level FlightAware Approximate
07:13AM 19.9138 -77.0370 354° North  Level FlightAware Approximate
07:14AM 20.0191 -77.0498 354° North  Level FlightAware Approximate
07:15AM 20.1244 -77.0626 354° North  Level FlightAware Approximate
07:16AM 20.2297 -77.0753 353° North  Level FlightAware Approximate
07:17AM 20.3349 -77.0882 353° North  Level FlightAware Approximate
07:18AM 20.4402 -77.1010 353° North  Level FlightAware Approximate
07:19AM 20.5455 -77.1138 353° North  Level FlightAware Approximate
07:20AM 20.6508 -77.1267 353° North  Level FlightAware Approximate
07:21AM 20.7561 -77.1396 353° North  Level FlightAware Approximate
07:22AM 20.8614 -77.1525 353° North  Level FlightAware Approximate
07:23AM 20.9666 -77.1654 353° North  Level FlightAware Approximate
07:24AM 21.0719 -77.1783 353° North  Level FlightAware Approximate
07:25AM 21.1772 -77.1913 353° North  Level FlightAware Approximate
07:26AM 21.2825 -77.2042 353° North  Level FlightAware Approximate
07:27AM 21.3874 -77.2186 337° Northwest  Level FlightAware Approximate
07:28AM 21.4848 -77.2635 337° Northwest  Level FlightAware Approximate
07:29AM 21.5821 -77.3086 337° Northwest  Level FlightAware Approximate
07:30AM 21.6794 -77.3537 337° Northwest  Level FlightAware Approximate
07:31AM 21.7767 -77.3989 337° Northwest  Level FlightAware Approximate
07:32AM 21.8740 -77.4441 337° Northwest  Level FlightAware Approximate
07:33AM 21.9713 -77.4894 337° Northwest  Level FlightAware Approximate
07:34AM 22.0686 -77.5347 337° Northwest  Level FlightAware Approximate
07:35AM 22.1658 -77.5802 337° Northwest  Level FlightAware Approximate
07:36AM 22.2631 -77.6256 337° Northwest  Level FlightAware Approximate
07:37AM 22.3603 -77.6712 337° Northwest  Level FlightAware Approximate
07:38AM 22.4575 -77.7168 337° Northwest  Level FlightAware Approximate
07:39AM 22.5548 -77.7625 337° Northwest  Level FlightAware Approximate
07:40AM 22.6520 -77.8082 337° Northwest  Level FlightAware Approximate
07:41AM 22.7491 -77.8540 337° Northwest  Level FlightAware Approximate
07:42AM 22.8463 -77.8998 336° Northwest  Level FlightAware Approximate
07:43AM 22.9318 -77.9578 328° Northwest  Level Estimated
07:43AM 22.8350 -77.9386 328° Northwest 446 513 36,000  Level Miami Center
07:44AM 23.0173 -78.0158 328° Northwest  Level Estimated
07:44AM 22.9308 -77.9800 338° Northwest 393 452 36,000  Level Miami Center
07:45AM 23.1027 -78.0740 328° Northwest  Level Estimated
07:45AM 23.0308 -78.0214 339° North 387 445 36,000  Level Miami Center
07:46AM 23.1881 -78.1322 328° Northwest  Level Estimated
07:46AM 23.1308 -78.0744 334° Northwest 381 438 36,000  Level Miami Center
07:47AM 23.2736 -78.1904 328° Northwest  Level Estimated
07:47AM 23.2286 -78.1136 340° North 376 433 36,000  Level Miami Center
07:48AM 23.3589 -78.2488 328° Northwest  Level Estimated
07:48AM 23.3244 -78.1600 336° Northwest 377 434 36,000  Level Miami Center
07:49AM 23.4222 -78.1994 340° North 377 434 36,000  Level Miami Center
07:50AM 23.5242 -78.2481 336° Northwest 379 436 36,000  Level Miami Center
07:51AM 23.6200 -78.2900 338° Northwest 373 429 36,000  Level Miami Center
07:52AM 23.7219 -78.3386 336° Northwest 378 435 36,000  Level Miami Center
07:53AM 23.8197 -78.3808 338° Northwest 378 435 36,000  Level Miami Center
07:54AM 23.9194 -78.4250 338° Northwest 378 435 36,000  Level Miami Center
07:55AM 24.0153 -78.4672 338° Northwest 378 435 36,000 -540 Level Miami Center
07:56AM 24.1150 -78.5208 334° Northwest 373 429 35,000 -1,440 Descending Miami Center
07:57AM 24.2208 -78.5700 337° Northwest 386 444 33,200 -1,440 Descending Miami Center
07:58AM 24.3247 -78.6217 336° Northwest 402 463 32,200 -960 Descending Miami Center
07:59AM 24.4369 -78.6736 337° Northwest 417 480 31,300 -960 Descending Miami Center
08:00AM 24.5472 -78.7275 336° Northwest 429 494 30,300 -1,020 Descending Miami Center
08:01AM 24.6656 -78.7842 336° Northwest 444 511 29,300 -1,080 Descending Miami Center
08:02AM 24.7672 -78.8361 335° Northwest 430 495 28,200 -1,140 Descending Miami Center
08:03AM 24.8878 -78.8931 337° Northwest 422 486 27,100 -960 Descending Miami Center
08:04AM 24.9667 -78.9311 336° Northwest 404 465 26,300 -900 Descending Miami Center
08:05AM 25.1014 -78.9931 337° Northwest 409 471 25,400 -1,260 Descending Miami Center
08:06AM 25.2136 -79.0478 336° Northwest 425 489 23,800 -2,220 Descending Miami Center
08:07AM 25.3214 -79.1025 335° Northwest 425 489 21,000 -2,940 Descending Miami Center
08:08AM 25.4250 -79.1597 333° Northwest 425 489 18,000 -3,120 Descending Miami Center
08:09AM 25.5092 -79.2489 316° Northwest 408 470 14,800 -2,940 Descending Miami Center
08:10AM 25.5872 -79.3333 316° Northwest 408 470 12,200 -2,520 Descending Miami Center
08:11AM 25.6611 -79.4156 315° West 390 449 9,800 -1,560 Descending Miami Center
08:12AM 25.7183 -79.4836 313° West 349 402 9,100 -840 Descending Miami Center
08:13AM 25.7469 -79.5211 310° West 297 342 8,600 -1,200 Descending Miami Center
08:13AM 25.7797 -79.5519 320° Northwest 312 359 7,900 -1,500 Descending Miami Center
08:14AM 25.8122 -79.6011 306° West 288 331 6,800 -1,440 Descending Miami Center
08:14AM 25.8308 -79.6175 322° Northwest 292 336 6,500 -900 Descending Miami Center
08:15AM 25.8633 -79.6600 310° West 283 326 6,000 -600 Descending Miami Center
08:15AM 25.8775 -79.6833 304° West 282 325 5,900  Descending Miami Center
08:16AM 25.8933 -79.7392 288° West 283 326 6,000  Climbing Miami Center
08:16AM 25.9072 -79.7625 303° West 277 319 5,900  Descending Miami Center
08:17AM 25.9250 -79.8161 290° West 262 302 6,000  Climbing Miami Center
08:17AM 25.9394 -79.8350 310° West 272 313 5,900  Descending Miami Center
08:18AM 25.9550 -79.8839 289° West 240 276 6,000  Climbing Miami Center
08:18AM 25.9672 -79.9003 310° West 253 291 5,900  Descending Miami Center
08:19AM 25.9892 -79.9517 295° West 242 278 6,000  Climbing Miami Center
08:19AM 25.9994 -79.9636 314° West 237 273 5,900  Descending Miami Center
08:20AM 26.0256 -80.0081 303° West 247 284 6,000  Climbing Miami Center
08:20AM 26.0422 -80.0086 358° North 237 273 5,900  Descending Miami Center
08:21AM 26.0939 -80.0378 333° Northwest 247 284 6,000  Climbing Miami Center
08:22AM 26.1367 -80.0897 313° West 235 270 6,000  Level Miami Center
08:23AM 26.1497 -80.1594 282° West 235 270 6,000 -600 Level Miami Center
08:24AM 26.1564 -80.2339 276° West 238 274 4,800 -1,140 Descending Miami Center
08:25AM 26.1628 -80.3081 275° West 233 268 3,700 -900 Descending Miami Center
08:26AM 26.1631 -80.3844 270° West 242 278 3,000 -540 Descending Miami Center
08:27AM 26.1192 -80.3900 186° South 177 204 2,700 -600 Descending Miami Center
08:28AM 26.1206 -80.3369 88° East 173 199 1,800 -540 Descending Miami Center
08:29AM 26.1281 -80.2839 81° East 168 193 1,700 -60 Descending Miami Center
08:30AM 26.1353 -80.2333 81° East 149 171 1,700 -360 Level Miami Center
08:31AM 26.1131 -80.2025 129° Southeast 130 150 1,000 -720 Descending Miami Center